Time;durP1;ratioP1;P1;durP2;ratioP2;P2;SDS_P1;SDS_P2;PMS_P1;PMS_P2;Temp;Humidity;BMP_temperature;BMP_pressure;BME280_temperature;BME280_humidity;BME280_pressure;Samples;Min_cycle;Max_cycle;Signal;HPM_P1;HPM_P2
2023/06/20 00:00:47;;;;;;;15.35;6.35;;;20.90;99.90;;;;;;4998128;28;20542;-69
2023/06/20 00:03:14;;;;;;;10.70;5.78;;;20.90;99.90;;;;;;4999570;28;20026;-69
2023/06/20 00:05:39;;;;;;;14.07;6.07;;;20.80;99.90;;;;;;5000566;28;20521;-69
2023/06/20 00:08:05;;;;;;;12.30;5.78;;;20.90;99.90;;;;;;4981733;28;20023;-69
2023/06/20 00:10:31;;;;;;;11.00;6.45;;;20.90;99.90;;;;;;4999191;28;20033;-69
2023/06/20 00:12:56;;;;;;;11.00;6.00;;;20.90;99.90;;;;;;4999229;28;20041;-69
2023/06/20 00:15:25;;;;;;;13.32;6.53;;;20.90;99.90;;;;;;5000103;28;20053;-70
2023/06/20 00:17:52;;;;;;;9.55;6.45;;;20.90;99.90;;;;;;4999245;28;20022;-69
2023/06/20 00:20:18;;;;;;;9.05;5.93;;;20.90;99.90;;;;;;4981437;28;20030;-70
2023/06/20 00:22:44;;;;;;;9.93;6.75;;;20.90;99.90;;;;;;4998816;28;20022;-69
2023/06/20 00:25:10;;;;;;;11.65;6.40;;;20.90;99.90;;;;;;4998762;28;20085;-70
2023/06/20 00:27:36;;;;;;;12.52;6.53;;;20.90;99.90;;;;;;4999234;28;20061;-69
2023/06/20 00:30:02;;;;;;;13.13;6.78;;;20.90;99.90;;;;;;4998750;28;20149;-70
2023/06/20 00:32:27;;;;;;;13.05;6.20;;;20.90;99.90;;;;;;4999121;28;20114;-70
2023/06/20 00:34:54;;;;;;;14.88;6.68;;;20.90;99.90;;;;;;4998700;28;20058;-70
2023/06/20 00:37:20;;;;;;;13.68;6.30;;;20.90;99.90;;;;;;4981184;28;20018;-70
2023/06/20 00:39:45;;;;;;;10.88;6.53;;;20.90;99.90;;;;;;4998584;28;20029;-70
2023/06/20 00:42:23;;;;;;;10.73;6.53;;;20.90;99.90;;;;;;4998778;28;20029;-70
2023/06/20 00:44:49;;;;;;;13.07;6.47;;;20.90;99.90;;;;;;4981200;28;20116;-69
2023/06/20 00:47:21;;;;;;;12.50;6.63;;;20.90;99.90;;;;;;4998795;28;20018;-69
2023/06/20 00:49:50;;;;;;;10.80;6.93;;;20.90;99.90;;;;;;4998885;28;20018;-69
2023/06/20 00:52:22;;;;;;;10.52;6.20;;;20.90;99.90;;;;;;4980681;28;20033;-70
2023/06/20 00:54:49;;;;;;;10.35;5.85;;;20.90;99.90;;;;;;4998746;28;20034;-69
2023/06/20 00:57:19;;;;;;;10.93;6.40;;;20.90;99.90;;;;;;4998172;28;20029;-70
2023/06/20 00:59:46;;;;;;;;;;;21.00;99.90;;;;;;4999082;28;20388;-70
2023/06/20 01:02:14;;;;;;;16.33;6.82;;;20.90;99.90;;;;;;4998312;28;19956;-70
2023/06/20 01:04:41;;;;;;;14.23;6.60;;;20.90;99.90;;;;;;4998089;28;20042;-69
2023/06/20 01:07:24;;;;;;;12.57;6.32;;;20.90;99.90;;;;;;4997853;28;20498;-70
2023/06/20 01:10:00;;;;;;;11.82;6.65;;;21.00;99.90;;;;;;4998319;28;20046;-70
2023/06/20 01:12:49;;;;;;;12.05;6.78;;;20.90;99.90;;;;;;4985762;28;20395;-70
2023/06/20 01:15:29;;;;;;;15.48;6.60;;;21.00;99.90;;;;;;4998180;28;20105;-70
2023/06/20 01:18:08;;;;;;;16.95;6.32;;;20.90;99.90;;;;;;4998260;28;20033;-69
2023/06/20 01:20:43;;;;;;;14.82;7.20;;;20.90;99.90;;;;;;4985034;28;20077;-70
2023/06/20 01:23:13;;;;;;;12.77;7.00;;;20.90;99.90;;;;;;4997470;28;20029;-70
2023/06/20 01:25:47;;;;;;;11.63;6.77;;;20.90;99.90;;;;;;4998204;28;20045;-70
2023/06/20 01:28:25;;;;;;;12.02;6.95;;;20.90;99.90;;;;;;4997752;28;20262;-69
2023/06/20 01:31:01;;;;;;;9.63;6.22;;;20.90;99.90;;;;;;4997866;28;20061;-70
2023/06/20 01:33:32;;;;;;;11.05;7.10;;;20.90;99.90;;;;;;4996159;28;20096;-70
2023/06/20 01:36:00;;;;;;;13.68;6.82;;;20.90;99.90;;;;;;4977385;28;20049;-70
2023/06/20 01:38:30;;;;;;;10.55;6.50;;;20.90;99.90;;;;;;4984976;28;20035;-70
2023/06/20 01:40:57;;;;;;;10.87;6.40;;;20.90;99.90;;;;;;4997732;28;20026;-70
2023/06/20 01:43:23;;;;;;;14.57;7.05;;;20.90;99.90;;;;;;4997646;28;20026;-70
2023/06/20 01:45:51;;;;;;;11.88;7.07;;;20.90;99.90;;;;;;4997740;28;20094;-70
2023/06/20 01:48:19;;;;;;;9.48;6.53;;;20.90;99.90;;;;;;4997955;28;20034;-70
2023/06/20 01:50:47;;;;;;;10.82;7.00;;;20.90;99.90;;;;;;4997466;28;20479;-70
2023/06/20 01:53:14;;;;;;;14.70;6.80;;;20.90;99.90;;;;;;4976955;28;20038;-70
2023/06/20 01:55:41;;;;;;;12.10;7.25;;;20.90;99.90;;;;;;4993168;28;20026;-70
2023/06/20 01:58:09;;;;;;;9.90;6.90;;;20.90;99.90;;;;;;4997522;28;20530;-70
2023/06/20 02:00:36;;;;;;;10.60;6.80;;;20.90;99.90;;;;;;4997483;28;20490;-69
2023/06/20 02:03:04;;;;;;;11.38;6.97;;;20.90;99.90;;;;;;4980026;28;20117;-70
2023/06/20 02:05:32;;;;;;;13.00;6.43;;;20.90;99.90;;;;;;4985794;28;20124;-69
2023/06/20 02:08:00;;;;;;;10.70;6.90;;;20.90;99.90;;;;;;5016988;28;20021;-70
2023/06/20 02:10:26;;;;;;;14.55;7.10;;;20.90;99.90;;;;;;5016700;28;20425;-70
2023/06/20 02:12:55;;;;;;;9.73;7.00;;;20.90;99.90;;;;;;5016804;28;20414;-70
2023/06/20 02:15:24;;;;;;;13.40;6.55;;;20.90;99.90;;;;;;5017077;28;20028;-69
2023/06/20 02:17:49;;;;;;;9.15;6.18;;;20.90;99.90;;;;;;5017068;28;20033;-69
2023/06/20 02:20:16;;;;;;;13.98;6.43;;;20.80;99.90;;;;;;5016614;28;20395;-69
2023/06/20 02:22:44;;;;;;;10.13;7.25;;;20.90;99.90;;;;;;5016716;28;20026;-69
2023/06/20 02:25:16;;;;;;;16.38;7.05;;;20.80;99.90;;;;;;5019092;28;20550;-70
2023/06/20 02:27:42;;;;;;;14.90;7.55;;;20.80;99.90;;;;;;5003537;28;20398;-70
2023/06/20 02:30:10;;;;;;;14.75;7.22;;;20.80;99.90;;;;;;5020652;28;20065;-69
2023/06/20 02:32:40;;;;;;;13.18;6.55;;;20.70;99.90;;;;;;5020855;28;20018;-70
2023/06/20 02:35:08;;;;;;;15.10;7.13;;;20.70;99.90;;;;;;5020660;28;20064;-69
2023/06/20 02:37:34;;;;;;;15.50;7.72;;;20.70;99.90;;;;;;5020484;28;20101;-70
2023/06/20 02:40:00;;;;;;;8.75;6.88;;;20.80;99.90;;;;;;5020366;28;20014;-70
2023/06/20 02:42:26;;;;;;;11.55;6.55;;;20.80;99.90;;;;;;5020796;28;20413;-69
2023/06/20 02:44:51;;;;;;;13.52;6.90;;;20.80;99.90;;;;;;5002852;28;20429;-70
2023/06/20 02:47:33;;;;;;;11.27;6.82;;;20.80;99.90;;;;;;5002766;28;20093;-69
2023/06/20 02:50:24;;;;;;;14.63;7.47;;;20.80;99.90;;;;;;5009427;28;20018;-69
2023/06/20 02:53:14;;;;;;;11.85;7.07;;;20.80;99.90;;;;;;5020135;28;20030;-70
2023/06/20 02:55:49;;;;;;;15.18;6.63;;;20.70;99.90;;;;;;5009520;28;20044;-69
2023/06/20 02:58:21;;;;;;;13.73;6.85;;;20.70;99.90;;;;;;5020455;28;20482;-70
2023/06/20 03:00:50;;;;;;;13.38;7.55;;;20.60;99.90;;;;;;5020012;28;20056;-69
2023/06/20 03:03:28;;;;;;;18.25;7.40;;;20.60;99.90;;;;;;5002318;28;20026;-70
2023/06/20 03:05:57;;;;;;;16.92;7.32;;;20.60;99.90;;;;;;4996659;28;20042;-69
2023/06/20 03:08:26;;;;;;;18.83;7.70;;;20.70;99.90;;;;;;4999871;28;20023;-69
2023/06/20 03:10:53;;;;;;;16.80;8.18;;;20.60;99.90;;;;;;5000297;28;20022;-70
2023/06/20 03:13:20;;;;;;;15.15;8.02;;;20.70;99.90;;;;;;4983227;28;20041;-69
2023/06/20 03:15:45;;;;;;;20.17;8.52;;;20.70;99.90;;;;;;5000614;28;20030;-69
2023/06/20 03:18:12;;;;;;;18.48;7.65;;;20.60;99.90;;;;;;5000141;28;20114;-70
2023/06/20 03:20:37;;;;;;;15.63;7.63;;;20.60;99.90;;;;;;5000380;28;20081;-70
2023/06/20 03:23:03;;;;;;;17.55;8.18;;;20.60;99.90;;;;;;4999859;28;20034;-70
2023/06/20 03:25:29;;;;;;;18.25;9.10;;;20.60;99.90;;;;;;5000354;28;20037;-69
2023/06/20 03:27:54;;;;;;;13.90;7.97;;;20.60;99.90;;;;;;4982435;28;20054;-69
2023/06/20 03:30:20;;;;;;;12.80;8.38;;;20.60;99.90;;;;;;5000200;28;20413;-70
2023/06/20 03:32:45;;;;;;;15.48;8.40;;;20.60;99.90;;;;;;5000076;28;20560;-70
2023/06/20 03:35:11;;;;;;;17.42;8.52;;;20.60;99.90;;;;;;4999810;28;20479;-70
2023/06/20 03:37:37;;;;;;;21.98;8.75;;;20.60;99.90;;;;;;4999725;28;20093;-69
2023/06/20 03:40:03;;;;;;;16.55;9.40;;;20.60;99.90;;;;;;4999645;28;20097;-69
2023/06/20 03:42:28;;;;;;;17.40;8.98;;;20.60;99.90;;;;;;4982302;28;20026;-70
2023/06/20 03:44:54;;;;;;;19.42;9.63;;;20.50;99.90;;;;;;4999817;28;20076;-69
2023/06/20 03:47:20;;;;;;;17.27;9.23;;;20.50;99.90;;;;;;4999819;28;20026;-69
2023/06/20 03:49:45;;;;;;;12.52;9.00;;;20.50;99.90;;;;;;4999675;28;20027;-69
2023/06/20 03:52:11;;;;;;;16.08;9.18;;;20.50;99.90;;;;;;4999474;28;20026;-70
2023/06/20 03:54:39;;;;;;;15.48;9.23;;;20.40;99.90;;;;;;4982227;28;20037;-70
2023/06/20 03:57:05;;;;;;;15.18;8.73;;;20.50;99.90;;;;;;4982036;28;20391;-69
2023/06/20 03:59:31;;;;;;;19.98;10.35;;;20.40;99.90;;;;;;4998510;28;20038;-70
2023/06/20 04:01:56;;;;;;;18.65;9.30;;;20.50;99.90;;;;;;4999410;28;20053;-70
2023/06/20 04:04:22;;;;;;;28.27;10.85;;;20.50;99.90;;;;;;4999610;28;20105;-69
2023/06/20 04:06:49;;;;;;;25.13;9.52;;;20.50;99.90;;;;;;4999084;28;20046;-69
2023/06/20 04:09:25;;;;;;;20.83;8.85;;;20.50;99.90;;;;;;4999394;28;20033;-69
2023/06/20 04:11:50;;;;;;;16.38;9.07;;;20.50;99.90;;;;;;4981434;28;20030;-70
2023/06/20 04:14:16;;;;;;;15.02;9.57;;;20.50;99.90;;;;;;4999349;28;20030;-69
2023/06/20 04:16:42;;;;;;;13.35;9.25;;;20.50;99.90;;;;;;4999054;28;20031;-70
2023/06/20 04:19:07;;;;;;;17.23;9.75;;;20.50;99.90;;;;;;4999250;28;20089;-69
2023/06/20 04:21:33;;;;;;;12.88;8.98;;;20.50;99.90;;;;;;4981486;28;20515;-69
2023/06/20 04:23:59;;;;;;;16.40;9.98;;;20.50;99.90;;;;;;4999063;28;20109;-69
2023/06/20 04:26:24;;;;;;;14.85;10.18;;;20.50;99.90;;;;;;4998778;28;20022;-70
2023/06/20 04:28:50;;;;;;;15.20;9.48;;;20.50;99.90;;;;;;4999269;28;20049;-69
2023/06/20 04:31:16;;;;;;;20.45;9.73;;;20.50;99.90;;;;;;4998852;28;20459;-69
2023/06/20 04:33:43;;;;;;;17.00;9.95;;;20.50;99.90;;;;;;4999191;28;20566;-69
2023/06/20 04:36:15;;;;;;;17.05;9.20;;;20.50;99.90;;;;;;4980990;28;20034;-69
2023/06/20 04:38:44;;;;;;;17.50;10.02;;;20.50;99.90;;;;;;4981126;28;20034;-69
2023/06/20 04:41:10;;;;;;;15.13;9.75;;;20.50;99.90;;;;;;4998625;28;20092;-69
2023/06/20 04:43:36;;;;;;;18.17;9.75;;;20.50;99.90;;;;;;4998785;28;20483;-69
2023/06/20 04:46:03;;;;;;;29.25;10.60;;;20.50;99.90;;;;;;4998524;28;20026;-69
2023/06/20 04:48:30;;;;;;;14.70;9.60;;;20.50;99.90;;;;;;4998230;28;20499;-69
2023/06/20 04:50:58;;;;;;;19.17;9.70;;;20.50;99.90;;;;;;4998415;28;20038;-69
2023/06/20 04:53:25;;;;;;;17.92;9.60;;;20.50;99.90;;;;;;4998515;28;20030;-69
2023/06/20 04:55:52;;;;;;;30.05;12.32;;;20.50;99.90;;;;;;4998232;28;20487;-69
2023/06/20 04:58:17;;;;;;;19.15;9.85;;;20.60;99.90;;;;;;4998699;28;20026;-69
2023/06/20 05:00:43;;;;;;;17.67;9.80;;;20.60;99.90;;;;;;4998337;28;20033;-69
2023/06/20 05:03:09;;;;;;;19.92;9.68;;;20.60;99.90;;;;;;4998504;28;20026;-69
2023/06/20 05:05:34;;;;;;;13.10;9.63;;;20.60;99.90;;;;;;4998097;28;20050;-69
2023/06/20 05:08:00;;;;;;;22.77;11.82;;;20.70;99.90;;;;;;4997963;28;20098;-69
2023/06/20 05:10:26;;;;;;;17.10;10.20;;;20.70;99.90;;;;;;4979856;28;20049;-70
2023/06/20 05:12:52;;;;;;;21.42;10.25;;;20.70;99.90;;;;;;4988501;28;20023;-69
2023/06/20 05:15:23;;;;;;;15.55;9.65;;;20.80;99.90;;;;;;4993962;28;20511;-69
2023/06/20 05:17:52;;;;;;;12.65;9.02;;;20.90;99.90;;;;;;4998223;28;20018;-69
2023/06/20 05:20:19;;;;;;;18.42;10.55;;;21.00;99.90;;;;;;4997691;28;20396;-69
2023/06/20 05:22:45;;;;;;;18.40;9.52;;;21.00;99.90;;;;;;4980228;28;20487;-69
2023/06/20 05:25:11;;;;;;;14.70;9.40;;;21.10;99.90;;;;;;4980301;28;20037;-69
2023/06/20 05:27:37;;;;;;;16.33;9.88;;;21.20;99.90;;;;;;4997631;28;20533;-69
2023/06/20 05:30:04;;;;;;;17.10;10.13;;;21.30;99.90;;;;;;4997138;28;20399;-69
2023/06/20 05:32:30;;;;;;;18.45;9.10;;;21.50;99.90;;;;;;4979814;28;20417;-69
2023/06/20 05:34:55;;;;;;;12.57;7.75;;;21.40;99.90;;;;;;4997228;28;20023;-71
2023/06/20 05:37:21;;;;;;;15.52;7.63;;;21.50;99.90;;;;;;4997527;28;20037;-68
2023/06/20 05:39:47;;;;;;;18.42;8.25;;;21.50;99.90;;;;;;4980293;28;20026;-69
2023/06/20 05:42:12;;;;;;;16.25;7.85;;;21.60;99.90;;;;;;4997701;28;20030;-69
2023/06/20 05:44:38;;;;;;;13.10;6.95;;;21.60;99.90;;;;;;4997535;28;20109;-71
2023/06/20 05:47:06;;;;;;;10.45;7.32;;;21.60;99.90;;;;;;4997860;28;20057;-70
2023/06/20 05:49:33;;;;;;;16.50;6.65;;;21.60;99.90;;;;;;4997486;28;20021;-69
2023/06/20 05:51:58;;;;;;;14.85;7.40;;;21.50;99.90;;;;;;4997485;28;20101;-69
2023/06/20 05:54:25;;;;;;;10.90;7.40;;;21.50;99.90;;;;;;4997374;28;20061;-69
2023/06/20 05:56:51;;;;;;;13.73;7.03;;;21.40;99.90;;;;;;4997662;28;20068;-69
2023/06/20 05:59:17;;;;;;;11.43;6.60;;;21.40;99.90;;;;;;4997256;28;20049;-69
2023/06/20 06:01:45;;;;;;;11.88;6.70;;;21.60;99.90;;;;;;4996303;28;20027;-69
2023/06/20 06:04:11;;;;;;;16.33;6.47;;;21.70;99.90;;;;;;4997913;28;20034;-69
2023/06/20 06:06:37;;;;;;;9.63;6.47;;;21.80;99.90;;;;;;5012659;28;20391;-69
2023/06/20 06:09:03;;;;;;;11.80;6.22;;;22.00;99.90;;;;;;5015290;28;20029;-69
2023/06/20 06:11:29;;;;;;;12.45;6.28;;;22.10;99.90;;;;;;5017132;28;20053;-69
2023/06/20 06:13:55;;;;;;;14.63;6.68;;;22.30;99.90;;;;;;5017931;28;20049;-69
2023/06/20 06:16:21;;;;;;;15.93;7.10;;;22.30;99.90;;;;;;5016709;28;20438;-69
2023/06/20 06:18:47;;;;;;;13.48;6.97;;;22.10;99.90;;;;;;5016753;28;20393;-69
2023/06/20 06:21:13;;;;;;;8.40;5.97;;;21.90;99.90;;;;;;5017215;28;20061;-71
2023/06/20 06:23:38;;;;;;;14.25;6.75;;;21.80;99.90;;;;;;5016123;28;20509;-69
2023/06/20 06:26:04;;;;;;;15.95;6.88;;;21.80;99.90;;;;;;5015561;28;20022;-69
2023/06/20 06:28:30;;;;;;;8.63;5.95;;;21.80;99.90;;;;;;5011230;28;20071;-70
2023/06/20 06:30:59;;;;;;;13.30;6.78;;;21.90;99.90;;;;;;5016290;28;20022;-69
2023/06/20 06:33:27;;;;;;;10.05;6.03;;;22.10;99.90;;;;;;5019448;28;20034;-69
2023/06/20 06:35:55;;;;;;;11.10;6.47;;;22.10;99.90;;;;;;4997854;28;20077;-70
2023/06/20 06:38:21;;;;;;;8.48;5.47;;;22.20;99.90;;;;;;5015332;28;20026;-69
2023/06/20 06:40:47;;;;;;;13.07;6.20;;;22.30;99.90;;;;;;4998342;28;20030;-69
2023/06/20 06:43:13;;;;;;;13.02;6.40;;;22.20;99.90;;;;;;5015570;28;20478;-70
2023/06/20 06:45:40;;;;;;;9.23;5.72;;;22.10;99.90;;;;;;5014615;28;20037;-69
2023/06/20 06:48:06;;;;;;;10.40;5.93;;;22.10;99.90;;;;;;5016823;28;20049;-69
2023/06/20 06:50:31;;;;;;;14.02;6.32;;;22.10;99.90;;;;;;5017223;28;20019;-69
2023/06/20 06:52:57;;;;;;;12.07;6.03;;;22.00;99.90;;;;;;5001147;28;20018;-70
2023/06/20 06:55:23;;;;;;;12.25;5.80;;;22.10;99.90;;;;;;5015412;28;20054;-69
2023/06/20 06:57:48;;;;;;;12.73;6.22;;;22.10;99.90;;;;;;5014560;28;20026;-70
2023/06/20 07:00:14;;;;;;;11.45;5.20;;;22.10;99.90;;;;;;5015451;28;20018;-69
2023/06/20 07:02:41;;;;;;;9.38;4.90;;;22.10;99.90;;;;;;5017035;28;20410;-70
2023/06/20 07:05:07;;;;;;;10.65;5.60;;;22.20;99.90;;;;;;4997860;28;20042;-69
2023/06/20 07:07:33;;;;;;;12.75;6.38;;;22.30;99.90;;;;;;5016781;28;20022;-70
2023/06/20 07:09:59;;;;;;;9.63;5.50;;;22.30;99.90;;;;;;5017372;28;20101;-70
2023/06/20 07:12:24;;;;;;;10.10;6.05;;;22.50;99.90;;;;;;5018866;28;20101;-70
2023/06/20 07:14:52;;;;;;;10.68;6.35;;;22.50;99.90;;;;;;5018948;28;20018;-70
2023/06/20 07:17:17;;;;;;;8.07;5.68;;;22.60;99.90;;;;;;5018080;28;20089;-70
2023/06/20 07:19:43;;;;;;;10.48;5.78;;;22.70;99.90;;;;;;5022734;28;20516;-70
2023/06/20 07:22:09;;;;;;;10.68;5.53;;;22.70;99.90;;;;;;5014385;28;20022;-70
2023/06/20 07:24:35;;;;;;;12.63;5.95;;;22.70;99.90;;;;;;5018801;28;20026;-70
2023/06/20 07:27:00;;;;;;;9.25;5.35;;;22.70;99.90;;;;;;5023840;28;20014;-70
2023/06/20 07:29:26;;;;;;;8.80;4.93;;;22.80;99.90;;;;;;5018784;28;20026;-70
2023/06/20 07:31:52;;;;;;;11.20;5.78;;;22.90;99.90;;;;;;5020854;28;20030;-70
2023/06/20 07:34:18;;;;;;;8.52;5.05;;;22.70;99.90;;;;;;5020873;28;20096;-70
2023/06/20 07:36:43;;;;;;;9.15;6.10;;;22.80;99.90;;;;;;5017920;28;20026;-70
2023/06/20 07:39:09;;;;;;;8.48;5.35;;;22.90;99.90;;;;;;5021736;28;20121;-70
2023/06/20 07:41:34;;;;;;;11.00;6.05;;;22.70;99.90;;;;;;5022935;28;20030;-70
2023/06/20 07:44:00;;;;;;;11.00;5.93;;;22.70;99.90;;;;;;5009033;28;20026;-71
2023/06/20 07:46:26;;;;;;;8.57;5.50;;;22.70;99.90;;;;;;5025249;28;20025;-70
2023/06/20 07:48:52;;;;;;;10.85;6.35;;;22.80;99.90;;;;;;5019835;28;20021;-70
2023/06/20 07:51:17;;;;;;;9.23;5.22;;;22.70;99.90;;;;;;5018297;28;20025;-70
2023/06/20 07:53:43;;;;;;;10.82;5.50;;;22.80;99.90;;;;;;5021560;28;20028;-70
2023/06/20 07:56:09;;;;;;;9.65;5.38;;;22.70;99.90;;;;;;5020805;28;20065;-70
2023/06/20 07:58:34;;;;;;;11.20;5.28;;;22.70;99.90;;;;;;5017360;28;20096;-70
2023/06/20 08:01:00;;;;;;;7.88;5.20;;;22.60;99.90;;;;;;5017574;28;20037;-70
2023/06/20 08:03:26;;;;;;;13.93;5.78;;;22.60;99.90;;;;;;5017603;28;20026;-70
2023/06/20 08:05:52;;;;;;;11.07;5.85;;;22.90;99.90;;;;;;5010796;28;20133;-70
2023/06/20 08:08:18;;;;;;;11.50;5.53;;;23.10;99.90;;;;;;4997266;28;20033;-71
2023/06/20 08:10:43;;;;;;;9.68;4.97;;;23.20;99.90;;;;;;4997865;28;20483;-69
2023/06/20 08:13:09;;;;;;;7.97;5.72;;;23.40;99.90;;;;;;4998327;28;20029;-69
2023/06/20 08:15:35;;;;;;;12.75;5.70;;;23.60;99.90;;;;;;4982691;28;20034;-69
2023/06/20 08:18:00;;;;;;;9.65;6.20;;;23.50;99.90;;;;;;4994728;28;20022;-70
2023/06/20 08:20:26;;;;;;;11.18;6.57;;;23.20;99.90;;;;;;4998040;28;20030;-69
2023/06/20 08:22:52;;;;;;;12.50;5.93;;;23.20;99.90;;;;;;4996161;28;20038;-69
2023/06/20 08:25:17;;;;;;;8.55;5.22;;;23.20;99.90;;;;;;4999030;28;20402;-69
2023/06/20 08:27:43;;;;;;;12.50;5.95;;;23.30;99.90;;;;;;5000226;28;20081;-69
2023/06/20 08:30:09;;;;;;;12.07;7.07;;;23.40;99.90;;;;;;4997756;28;20034;-69
2023/06/20 08:32:38;;;;;;;12.23;6.55;;;23.40;99.90;;;;;;4997808;28;20031;-70
2023/06/20 08:35:04;;;;;;;9.88;5.35;;;23.40;99.90;;;;;;4999354;28;20038;-70
2023/06/20 08:37:29;;;;;;;10.55;5.13;;;23.50;99.90;;;;;;4998036;28;20049;-69
2023/06/20 08:39:55;;;;;;;14.50;6.55;;;23.60;99.90;;;;;;4999356;28;20026;-69
2023/06/20 08:42:21;;;;;;;11.20;6.18;;;23.50;99.90;;;;;;4998531;28;20022;-69
2023/06/20 08:44:46;;;;;;;11.18;6.10;;;23.50;99.90;;;;;;4998440;28;20506;-70
2023/06/20 08:47:12;;;;;;;13.25;6.25;;;23.50;99.90;;;;;;4996877;28;20037;-70
2023/06/20 08:49:39;;;;;;;16.08;6.53;;;23.50;99.90;;;;;;4998391;28;20029;-70
2023/06/20 08:52:10;;;;;;;10.32;5.93;;;23.50;99.90;;;;;;4980267;28;20041;-69
2023/06/20 08:54:40;;;;;;;12.05;6.85;;;23.50;99.90;;;;;;5004243;28;20089;-69
2023/06/20 08:57:06;;;;;;;;;;;23.50;99.90;;;;;;4998746;28;20018;-70
2023/06/20 08:59:33;;;;;;;11.52;7.03;;;23.60;99.90;;;;;;4993743;28;19905;-69
2023/06/20 09:01:59;;;;;;;14.20;6.03;;;23.60;99.90;;;;;;4977156;28;20033;-69
2023/06/20 09:04:27;;;;;;;13.85;7.13;;;23.60;99.90;;;;;;4998215;28;20399;-69
2023/06/20 09:06:53;;;;;;;12.50;6.95;;;23.60;99.90;;;;;;4997487;28;20635;-69
2023/06/20 09:09:20;;;;;;;11.38;6.63;;;23.50;99.90;;;;;;4979449;28;20083;-70
2023/06/20 09:11:57;;;;;;;11.63;6.90;;;23.50;99.90;;;;;;4998145;28;20022;-71
2023/06/20 09:14:27;;;;;;;11.43;5.85;;;23.50;99.90;;;;;;4978693;28;20103;-71
2023/06/20 09:16:53;;;;;;;12.00;5.70;;;23.50;99.90;;;;;;5000323;28;20029;-70
2023/06/20 09:19:19;;;;;;;13.52;6.47;;;23.50;99.90;;;;;;4996733;28;20034;-71
2023/06/20 09:21:44;;;;;;;10.63;6.93;;;23.60;99.90;;;;;;4979010;28;20018;-69
2023/06/20 09:24:10;;;;;;;11.38;6.45;;;23.60;99.90;;;;;;4996231;28;20040;-69
2023/06/20 09:26:36;;;;;;;11.35;6.78;;;23.80;99.90;;;;;;5000469;28;20033;-70
2023/06/20 09:29:19;;;;;;;11.25;6.93;;;24.00;99.90;;;;;;4995590;28;20410;-69
2023/06/20 09:31:49;;;;;;;15.63;6.63;;;24.30;99.90;;;;;;4996308;28;20026;-70
2023/06/20 09:34:18;;;;;;;13.93;6.85;;;24.40;99.90;;;;;;4980562;28;20029;-70
2023/06/20 09:36:45;;;;;;;14.48;7.03;;;24.20;99.90;;;;;;5000166;28;20041;-69
2023/06/20 09:39:13;;;;;;;14.23;6.38;;;24.20;99.90;;;;;;4996150;28;20785;-70
2023/06/20 09:41:49;;;;;;;17.55;7.22;;;24.30;99.90;;;;;;4997792;28;20046;-69
2023/06/20 09:44:17;;;;;;;12.75;6.47;;;24.40;99.90;;;;;;4998174;28;20080;-69
2023/06/20 09:46:43;;;;;;;13.20;6.80;;;24.90;99.90;;;;;;4996405;28;20052;-70
2023/06/20 09:49:11;;;;;;;10.82;7.15;;;25.50;99.90;;;;;;4997595;28;20097;-70
2023/06/20 09:52:02;;;;;;;14.82;7.05;;;25.60;99.90;;;;;;4997503;28;20022;-70
2023/06/20 09:54:34;;;;;;;15.73;7.13;;;25.70;99.90;;;;;;4997268;28;20113;-69
2023/06/20 09:57:08;;;;;;;16.90;6.90;;;25.60;99.90;;;;;;4998382;28;20030;-70
2023/06/20 09:59:38;;;;;;;21.05;7.35;;;25.60;99.90;;;;;;4996766;28;20077;-70
2023/06/20 10:02:07;;;;;;;12.98;6.60;;;25.60;99.90;;;;;;4996575;28;20494;-69
2023/06/20 10:04:39;;;;;;;15.90;6.63;;;25.60;99.90;;;;;;4996204;28;20037;-70
2023/06/20 10:07:05;;;;;;;20.60;7.30;;;25.80;99.90;;;;;;4992231;28;20049;-70
2023/06/20 10:09:31;;;;;;;13.82;6.97;;;25.80;99.90;;;;;;4996167;28;20510;-69
2023/06/20 10:11:57;;;;;;;16.73;6.85;;;25.80;99.90;;;;;;4997911;28;20165;-70
2023/06/20 10:14:24;;;;;;;10.85;6.22;;;25.50;99.90;;;;;;4996399;28;20102;-70
2023/06/20 10:16:51;;;;;;;14.35;7.53;;;25.20;99.90;;;;;;4977649;28;20123;-69
2023/06/20 10:19:18;;;;;;;13.77;6.97;;;24.90;99.90;;;;;;4996101;28;20027;-69
2023/06/20 10:21:58;;;;;;;14.60;6.55;;;24.80;99.90;;;;;;4996344;28;20022;-69
2023/06/20 10:24:29;;;;;;;18.83;7.80;;;24.70;99.90;;;;;;4998194;28;20030;-69
2023/06/20 10:26:59;;;;;;;15.10;8.18;;;24.70;99.90;;;;;;4994115;28;20097;-70
2023/06/20 10:29:26;;;;;;;15.35;7.10;;;24.90;99.90;;;;;;4978555;28;20022;-69
2023/06/20 10:32:05;;;;;;;16.75;7.57;;;25.10;99.90;;;;;;4997604;28;20030;-69
2023/06/20 10:34:39;;;;;;;18.48;8.93;;;25.30;99.90;;;;;;4998124;28;20050;-70
2023/06/20 10:37:16;;;;;;;13.70;7.03;;;25.20;99.90;;;;;;4994770;28;20423;-70
2023/06/20 10:39:56;;;;;;;12.80;7.85;;;25.40;99.90;;;;;;4994582;28;20494;-69
2023/06/20 10:42:38;;;;;;;17.33;7.50;;;25.40;99.90;;;;;;4977338;28;20459;-71
2023/06/20 10:45:27;;;;;;;17.42;7.57;;;25.40;99.90;;;;;;4993678;28;20034;-70
2023/06/20 10:47:53;;;;;;;14.10;6.57;;;25.50;99.90;;;;;;4980344;28;20026;-69
2023/06/20 10:50:20;;;;;;;15.15;6.60;;;25.60;99.90;;;;;;4999754;28;20085;-70
2023/06/20 10:52:47;;;;;;;12.07;6.35;;;25.60;99.90;;;;;;4999247;28;20057;-69
2023/06/20 10:55:26;;;;;;;14.38;6.65;;;25.70;99.90;;;;;;4999536;28;20093;-70
2023/06/20 10:57:53;;;;;;;12.23;6.57;;;25.60;99.90;;;;;;4997269;28;20125;-70
2023/06/20 11:00:21;;;;;;;17.45;7.18;;;26.00;99.90;;;;;;4998223;28;20085;-70
2023/06/20 11:02:51;;;;;;;20.38;7.90;;;26.20;99.90;;;;;;5002032;28;20403;-71
2023/06/20 11:05:17;;;;;;;16.92;6.07;;;26.50;99.90;;;;;;4986174;28;20077;-69
2023/06/20 11:07:55;;;;;;;13.27;7.60;;;26.60;99.90;;;;;;4999817;28;20018;-70
2023/06/20 11:10:25;;;;;;;14.27;7.07;;;26.90;99.90;;;;;;5018764;28;20152;-70
2023/06/20 11:12:50;;;;;;;12.13;6.95;;;26.90;99.90;;;;;;5019694;28;20494;-70
2023/06/20 11:15:24;;;;;;;16.73;7.20;;;26.80;99.90;;;;;;5017686;28;20097;-70
2023/06/20 11:17:51;;;;;;;13.88;7.38;;;26.80;99.90;;;;;;5019797;28;20045;-70
2023/06/20 11:20:17;;;;;;;9.43;6.20;;;26.70;99.90;;;;;;5001818;28;20030;-70
2023/06/20 11:22:45;;;;;;;16.85;7.18;;;26.60;99.90;;;;;;5018719;28;20446;-70
2023/06/20 11:25:11;;;;;;;22.63;8.10;;;26.70;99.90;;;;;;5019889;28;20101;-69
2023/06/20 11:27:38;;;;;;;13.88;6.35;;;26.90;99.90;;;;;;5018233;28;20056;-70
2023/06/20 11:30:06;;;;;;;18.77;6.05;;;27.00;99.90;;;;;;5018444;28;20486;-70
2023/06/20 11:32:31;;;;;;;18.10;7.07;;;27.30;99.90;;;;;;5002243;28;20057;-70
2023/06/20 11:35:02;;;;;;;16.25;6.32;;;27.60;99.90;;;;;;5021299;28;20026;-69
2023/06/20 11:37:29;;;;;;;14.02;5.57;;;27.60;99.90;;;;;;5020647;28;20516;-70
2023/06/20 11:39:55;;;;;;;18.27;7.20;;;27.70;99.90;;;;;;5020947;28;20445;-70
2023/06/20 11:42:21;;;;;;;13.50;5.30;;;27.90;99.90;;;;;;5022001;28;20552;-69
2023/06/20 11:44:47;;;;;;;14.95;5.63;;;27.70;99.90;;;;;;5000081;28;20026;-69
2023/06/20 11:47:13;;;;;;;14.35;6.60;;;27.30;99.90;;;;;;5017411;28;20478;-70
2023/06/20 11:49:42;;;;;;;15.20;6.20;;;27.00;99.90;;;;;;5000510;28;20663;-70
2023/06/20 11:52:09;;;;;;;22.20;6.63;;;26.80;99.90;;;;;;5019980;28;20246;-70
2023/06/20 11:54:51;;;;;;;12.88;6.00;;;27.10;99.90;;;;;;5017523;28;20085;-70
2023/06/20 11:57:26;;;;;;;14.70;6.75;;;27.30;99.90;;;;;;5014451;28;20128;-70
2023/06/20 11:59:53;;;;;;;13.55;5.82;;;27.10;99.90;;;;;;5015213;28;20080;-70
2023/06/20 12:02:19;;;;;;;13.00;6.28;;;27.00;99.90;;;;;;5004516;28;20029;-70
2023/06/20 12:04:58;;;;;;;18.35;5.97;;;27.10;99.90;;;;;;5020457;28;20084;-70
2023/06/20 12:07:27;;;;;;;19.08;6.18;;;27.10;99.90;;;;;;4976161;28;20089;-69
2023/06/20 12:09:53;;;;;;;14.27;6.68;;;27.20;99.90;;;;;;4999362;28;20053;-71
2023/06/20 12:12:19;;;;;;;18.20;7.03;;;27.30;99.90;;;;;;5000799;28;20042;-70
2023/06/20 12:14:51;;;;;;;10.38;5.32;;;27.30;99.90;;;;;;4980600;28;20019;-70
2023/06/20 12:17:17;;;;;;;16.23;5.95;;;27.70;99.90;;;;;;4998222;28;20034;-70
2023/06/20 12:19:51;;;;;;;17.20;5.82;;;27.80;99.90;;;;;;4998451;28;20023;-70
2023/06/20 12:22:16;;;;;;;16.52;7.45;;;27.60;99.90;;;;;;4993914;28;20701;-70
2023/06/20 12:24:42;;;;;;;16.88;6.05;;;27.70;99.90;;;;;;4997917;28;20014;-70
2023/06/20 12:27:08;;;;;;;16.48;6.65;;;27.90;99.90;;;;;;4998401;28;20530;-70
2023/06/20 12:29:33;;;;;;;16.75;5.85;;;28.20;99.90;;;;;;4999375;28;20023;-69
2023/06/20 12:31:59;;;;;;;18.02;5.65;;;28.20;99.90;;;;;;4999829;28;20030;-71
2023/06/20 12:34:24;;;;;;;16.95;5.50;;;28.20;99.90;;;;;;4997671;28;20027;-70
2023/06/20 12:36:51;;;;;;;18.92;6.57;;;28.40;99.90;;;;;;4996263;28;20030;-70
2023/06/20 12:39:17;;;;;;;16.65;5.78;;;28.50;99.90;;;;;;4998895;28;20030;-69
2023/06/20 12:41:42;;;;;;;20.42;5.80;;;28.30;99.90;;;;;;4997296;28;21757;-70